sensor_id;sensor_type;location;lat;lon;timestamp;P1;durP1;ratioP1;P2;durP2;ratioP2
19842;SDS011;10082;51.038;6.992;2023-04-25T00:01:42;11.13;;;7.63;;
19842;SDS011;10082;51.038;6.992;2023-04-25T00:04:10;12.73;;;7.67;;
19842;SDS011;10082;51.038;6.992;2023-04-25T00:06:37;10.80;;;7.23;;
19842;SDS011;10082;51.038;6.992;2023-04-25T00:09:05;9.43;;;6.80;;
19842;SDS011;10082;51.038;6.992;2023-04-25T00:11:34;8.80;;;6.50;;
19842;SDS011;10082;51.038;6.992;2023-04-25T00:14:02;10.23;;;6.13;;
19842;SDS011;10082;51.038;6.992;2023-04-25T00:16:29;13.10;;;6.33;;
19842;SDS011;10082;51.038;6.992;2023-04-25T00:19:00;9.90;;;6.20;;
19842;SDS011;10082;51.038;6.992;2023-04-25T00:21:28;10.47;;;6.27;;
19842;SDS011;10082;51.038;6.992;2023-04-25T00:23:56;10.70;;;6.30;;
19842;SDS011;10082;51.038;6.992;2023-04-25T00:26:24;9.17;;;5.97;;
19842;SDS011;10082;51.038;6.992;2023-04-25T00:28:51;13.13;;;7.03;;
19842;SDS011;10082;51.038;6.992;2023-04-25T00:31:18;10.03;;;6.80;;
19842;SDS011;10082;51.038;6.992;2023-04-25T00:33:45;10.77;;;6.77;;
19842;SDS011;10082;51.038;6.992;2023-04-25T00:36:14;10.23;;;6.93;;
19842;SDS011;10082;51.038;6.992;2023-04-25T00:38:42;12.07;;;6.43;;
19842;SDS011;10082;51.038;6.992;2023-04-25T00:41:09;11.60;;;6.67;;
19842;SDS011;10082;51.038;6.992;2023-04-25T00:43:36;14.30;;;8.00;;
19842;SDS011;10082;51.038;6.992;2023-04-25T00:46:04;11.57;;;7.10;;
19842;SDS011;10082;51.038;6.992;2023-04-25T00:48:31;12.60;;;7.20;;
19842;SDS011;10082;51.038;6.992;2023-04-25T00:50:58;10.90;;;6.87;;
19842;SDS011;10082;51.038;6.992;2023-04-25T00:53:28;15.13;;;8.23;;
19842;SDS011;10082;51.038;6.992;2023-04-25T00:55:57;14.67;;;8.23;;
19842;SDS011;10082;51.038;6.992;2023-04-25T00:58:25;10.80;;;7.10;;
19842;SDS011;10082;51.038;6.992;2023-04-25T01:00:52;13.33;;;8.00;;
19842;SDS011;10082;51.038;6.992;2023-04-25T01:03:19;14.70;;;7.50;;
19842;SDS011;10082;51.038;6.992;2023-04-25T01:05:47;12.97;;;9.53;;
19842;SDS011;10082;51.038;6.992;2023-04-25T01:08:14;13.10;;;8.27;;
19842;SDS011;10082;51.038;6.992;2023-04-25T01:10:43;12.67;;;8.73;;
19842;SDS011;10082;51.038;6.992;2023-04-25T01:13:10;16.07;;;8.50;;
19842;SDS011;10082;51.038;6.992;2023-04-25T01:15:37;14.50;;;9.33;;
19842;SDS011;10082;51.038;6.992;2023-04-25T01:18:05;14.43;;;8.57;;
19842;SDS011;10082;51.038;6.992;2023-04-25T01:20:32;13.30;;;7.63;;
19842;SDS011;10082;51.038;6.992;2023-04-25T01:23:02;11.90;;;7.37;;
19842;SDS011;10082;51.038;6.992;2023-04-25T01:25:29;11.00;;;6.80;;
19842;SDS011;10082;51.038;6.992;2023-04-25T01:27:56;11.50;;;7.10;;
19842;SDS011;10082;51.038;6.992;2023-04-25T01:30:25;10.77;;;7.20;;
19842;SDS011;10082;51.038;6.992;2023-04-25T01:32:54;12.50;;;7.40;;
19842;SDS011;10082;51.038;6.992;2023-04-25T01:35:22;9.63;;;4.43;;
19842;SDS011;10082;51.038;6.992;2023-04-25T01:37:52;10.33;;;4.70;;
19842;SDS011;10082;51.038;6.992;2023-04-25T01:40:21;8.57;;;4.60;;
19842;SDS011;10082;51.038;6.992;2023-04-25T01:42:50;8.63;;;4.53;;
19842;SDS011;10082;51.038;6.992;2023-04-25T01:45:18;11.00;;;4.60;;
19842;SDS011;10082;51.038;6.992;2023-04-25T01:47:47;10.03;;;4.47;;
19842;SDS011;10082;51.038;6.992;2023-04-25T01:50:14;8.83;;;4.97;;
19842;SDS011;10082;51.038;6.992;2023-04-25T01:52:44;8.87;;;4.70;;
19842;SDS011;10082;51.038;6.992;2023-04-25T01:55:12;9.50;;;4.50;;
19842;SDS011;10082;51.038;6.992;2023-04-25T01:57:53;8.57;;;4.63;;
19842;SDS011;10082;51.038;6.992;2023-04-25T02:00:29;8.80;;;4.50;;
19842;SDS011;10082;51.038;6.992;2023-04-25T02:02:57;6.60;;;4.60;;
19842;SDS011;10082;51.038;6.992;2023-04-25T02:05:33;6.30;;;4.43;;
19842;SDS011;10082;51.038;6.992;2023-04-25T02:08:02;9.03;;;4.37;;
19842;SDS011;10082;51.038;6.992;2023-04-25T02:10:30;8.60;;;4.70;;
19842;SDS011;10082;51.038;6.992;2023-04-25T02:13:10;8.33;;;3.73;;
19842;SDS011;10082;51.038;6.992;2023-04-25T02:15:55;10.77;;;4.30;;
19842;SDS011;10082;51.038;6.992;2023-04-25T02:18:22;8.90;;;4.47;;
19842;SDS011;10082;51.038;6.992;2023-04-25T02:20:50;9.17;;;4.37;;
19842;SDS011;10082;51.038;6.992;2023-04-25T02:23:20;8.20;;;4.30;;
19842;SDS011;10082;51.038;6.992;2023-04-25T02:25:47;9.87;;;4.87;;
19842;SDS011;10082;51.038;6.992;2023-04-25T02:28:17;8.47;;;4.77;;
19842;SDS011;10082;51.038;6.992;2023-04-25T02:30:44;8.57;;;4.57;;
19842;SDS011;10082;51.038;6.992;2023-04-25T02:33:11;7.27;;;4.40;;
19842;SDS011;10082;51.038;6.992;2023-04-25T02:35:42;7.67;;;4.23;;
19842;SDS011;10082;51.038;6.992;2023-04-25T02:38:09;9.30;;;4.37;;
19842;SDS011;10082;51.038;6.992;2023-04-25T02:40:39;6.20;;;3.93;;
19842;SDS011;10082;51.038;6.992;2023-04-25T02:43:06;8.53;;;4.40;;
19842;SDS011;10082;51.038;6.992;2023-04-25T02:45:35;7.57;;;3.90;;
19842;SDS011;10082;51.038;6.992;2023-04-25T02:48:03;9.30;;;4.00;;
19842;SDS011;10082;51.038;6.992;2023-04-25T02:50:31;7.70;;;4.03;;
19842;SDS011;10082;51.038;6.992;2023-04-25T02:52:59;6.60;;;3.67;;
19842;SDS011;10082;51.038;6.992;2023-04-25T02:55:32;7.20;;;3.83;;
19842;SDS011;10082;51.038;6.992;2023-04-25T02:58:01;7.47;;;3.93;;
19842;SDS011;10082;51.038;6.992;2023-04-25T03:00:43;6.83;;;3.80;;
19842;SDS011;10082;51.038;6.992;2023-04-25T03:03:10;7.80;;;3.80;;
19842;SDS011;10082;51.038;6.992;2023-04-25T03:08:41;7.17;;;3.67;;
19842;SDS011;10082;51.038;6.992;2023-04-25T03:11:09;6.63;;;3.50;;
19842;SDS011;10082;51.038;6.992;2023-04-25T03:13:36;5.57;;;3.87;;
19842;SDS011;10082;51.038;6.992;2023-04-25T03:16:05;6.33;;;3.80;;
19842;SDS011;10082;51.038;6.992;2023-04-25T03:18:33;5.20;;;3.47;;
19842;SDS011;10082;51.038;6.992;2023-04-25T03:21:00;5.93;;;3.40;;
19842;SDS011;10082;51.038;6.992;2023-04-25T03:23:29;4.53;;;3.43;;
19842;SDS011;10082;51.038;6.992;2023-04-25T03:25:57;5.33;;;3.03;;
19842;SDS011;10082;51.038;6.992;2023-04-25T03:28:24;5.40;;;3.07;;
19842;SDS011;10082;51.038;6.992;2023-04-25T03:30:52;5.60;;;3.33;;
19842;SDS011;10082;51.038;6.992;2023-04-25T03:33:20;6.27;;;3.30;;
19842;SDS011;10082;51.038;6.992;2023-04-25T03:35:48;5.20;;;3.30;;
19842;SDS011;10082;51.038;6.992;2023-04-25T03:38:16;4.83;;;3.13;;
19842;SDS011;10082;51.038;6.992;2023-04-25T03:40:44;5.53;;;3.20;;
19842;SDS011;10082;51.038;6.992;2023-04-25T03:43:21;5.50;;;3.57;;
19842;SDS011;10082;51.038;6.992;2023-04-25T03:45:54;5.50;;;3.70;;
19842;SDS011;10082;51.038;6.992;2023-04-25T03:48:24;5.80;;;3.40;;
19842;SDS011;10082;51.038;6.992;2023-04-25T03:50:53;5.93;;;3.80;;
19842;SDS011;10082;51.038;6.992;2023-04-25T03:53:20;6.60;;;3.57;;
19842;SDS011;10082;51.038;6.992;2023-04-25T03:56:07;7.83;;;3.73;;
19842;SDS011;10082;51.038;6.992;2023-04-25T03:58:36;5.43;;;4.00;;
19842;SDS011;10082;51.038;6.992;2023-04-25T04:01:04;7.17;;;4.10;;
19842;SDS011;10082;51.038;6.992;2023-04-25T04:03:36;5.77;;;3.47;;
19842;SDS011;10082;51.038;6.992;2023-04-25T04:06:03;7.00;;;4.50;;
19842;SDS011;10082;51.038;6.992;2023-04-25T04:08:35;6.30;;;4.27;;
19842;SDS011;10082;51.038;6.992;2023-04-25T04:11:04;9.57;;;4.40;;
19842;SDS011;10082;51.038;6.992;2023-04-25T04:13:31;8.00;;;4.30;;
19842;SDS011;10082;51.038;6.992;2023-04-25T04:15:59;8.03;;;4.40;;
19842;SDS011;10082;51.038;6.992;2023-04-25T04:18:27;9.50;;;4.73;;
19842;SDS011;10082;51.038;6.992;2023-04-25T04:20:57;9.40;;;4.57;;
19842;SDS011;10082;51.038;6.992;2023-04-25T04:23:24;9.30;;;5.30;;
19842;SDS011;10082;51.038;6.992;2023-04-25T04:25:52;9.03;;;5.33;;
19842;SDS011;10082;51.038;6.992;2023-04-25T04:28:26;6.73;;;5.13;;
19842;SDS011;10082;51.038;6.992;2023-04-25T04:30:58;7.87;;;4.90;;
19842;SDS011;10082;51.038;6.992;2023-04-25T04:33:26;8.97;;;5.60;;
19842;SDS011;10082;51.038;6.992;2023-04-25T04:36:00;7.53;;;5.57;;
19842;SDS011;10082;51.038;6.992;2023-04-25T04:38:29;8.33;;;5.17;;
19842;SDS011;10082;51.038;6.992;2023-04-25T04:41:00;10.40;;;5.57;;
19842;SDS011;10082;51.038;6.992;2023-04-25T04:43:47;8.53;;;5.13;;
19842;SDS011;10082;51.038;6.992;2023-04-25T04:46:37;11.80;;;5.67;;
19842;SDS011;10082;51.038;6.992;2023-04-25T04:49:12;9.43;;;5.43;;
19842;SDS011;10082;51.038;6.992;2023-04-25T04:52:02;11.47;;;5.73;;
19842;SDS011;10082;51.038;6.992;2023-04-25T04:54:49;9.97;;;6.07;;
19842;SDS011;10082;51.038;6.992;2023-04-25T04:57:34;10.77;;;5.70;;
19842;SDS011;10082;51.038;6.992;2023-04-25T05:00:34;10.07;;;5.90;;
19842;SDS011;10082;51.038;6.992;2023-04-25T05:03:26;14.27;;;7.10;;
19842;SDS011;10082;51.038;6.992;2023-04-25T05:06:09;12.83;;;6.00;;
19842;SDS011;10082;51.038;6.992;2023-04-25T05:08:47;9.60;;;5.27;;
19842;SDS011;10082;51.038;6.992;2023-04-25T05:11:39;10.40;;;5.47;;
19842;SDS011;10082;51.038;6.992;2023-04-25T05:14:32;9.33;;;5.00;;
19842;SDS011;10082;51.038;6.992;2023-04-25T05:17:08;14.37;;;5.77;;
19842;SDS011;10082;51.038;6.992;2023-04-25T05:19:43;9.17;;;4.73;;
19842;SDS011;10082;51.038;6.992;2023-04-25T05:22:17;11.17;;;5.03;;
19842;SDS011;10082;51.038;6.992;2023-04-25T05:25:11;11.77;;;5.20;;
19842;SDS011;10082;51.038;6.992;2023-04-25T05:28:00;13.63;;;5.33;;
19842;SDS011;10082;51.038;6.992;2023-04-25T05:30:48;11.97;;;4.70;;
19842;SDS011;10082;51.038;6.992;2023-04-25T05:33:23;9.60;;;4.77;;
19842;SDS011;10082;51.038;6.992;2023-04-25T05:35:51;12.17;;;5.73;;
19842;SDS011;10082;51.038;6.992;2023-04-25T05:38:18;11.47;;;4.70;;
19842;SDS011;10082;51.038;6.992;2023-04-25T05:41:05;13.20;;;4.97;;
19842;SDS011;10082;51.038;6.992;2023-04-25T05:43:46;12.67;;;5.77;;
19842;SDS011;10082;51.038;6.992;2023-04-25T05:46:39;10.65;;;5.03;;
19842;SDS011;10082;51.038;6.992;2023-04-25T05:49:30;8.43;;;4.80;;
19842;SDS011;10082;51.038;6.992;2023-04-25T05:52:17;12.43;;;4.73;;
19842;SDS011;10082;51.038;6.992;2023-04-25T05:54:55;9.13;;;4.73;;
19842;SDS011;10082;51.038;6.992;2023-04-25T05:57:24;13.57;;;5.10;;
19842;SDS011;10082;51.038;6.992;2023-04-25T05:59:54;14.00;;;5.30;;
19842;SDS011;10082;51.038;6.992;2023-04-25T06:02:28;9.33;;;4.80;;
19842;SDS011;10082;51.038;6.992;2023-04-25T06:04:55;14.30;;;5.18;;
19842;SDS011;10082;51.038;6.992;2023-04-25T06:07:28;11.47;;;4.60;;
19842;SDS011;10082;51.038;6.992;2023-04-25T06:09:56;9.63;;;4.83;;
19842;SDS011;10082;51.038;6.992;2023-04-25T06:12:26;10.53;;;4.93;;
19842;SDS011;10082;51.038;6.992;2023-04-25T06:14:53;13.47;;;4.60;;
19842;SDS011;10082;51.038;6.992;2023-04-25T06:17:20;7.85;;;4.18;;
19842;SDS011;10082;51.038;6.992;2023-04-25T06:19:49;8.63;;;3.80;;
19842;SDS011;10082;51.038;6.992;2023-04-25T06:22:15;8.75;;;4.32;;
19842;SDS011;10082;51.038;6.992;2023-04-25T06:24:43;9.77;;;3.92;;
19842;SDS011;10082;51.038;6.992;2023-04-25T06:27:10;14.05;;;4.50;;
19842;SDS011;10082;51.038;6.992;2023-04-25T06:29:39;11.50;;;3.97;;
19842;SDS011;10082;51.038;6.992;2023-04-25T06:32:07;10.60;;;3.63;;
19842;SDS011;10082;51.038;6.992;2023-04-25T06:34:34;9.27;;;3.70;;
19842;SDS011;10082;51.038;6.992;2023-04-25T06:37:01;11.35;;;4.07;;
19842;SDS011;10082;51.038;6.992;2023-04-25T06:39:29;12.32;;;4.13;;
19842;SDS011;10082;51.038;6.992;2023-04-25T06:41:56;7.82;;;3.63;;
19842;SDS011;10082;51.038;6.992;2023-04-25T06:44:46;11.70;;;4.50;;
19842;SDS011;10082;51.038;6.992;2023-04-25T06:47:14;9.07;;;3.55;;
19842;SDS011;10082;51.038;6.992;2023-04-25T06:49:42;9.98;;;3.40;;
19842;SDS011;10082;51.038;6.992;2023-04-25T06:52:10;9.38;;;3.72;;
19842;SDS011;10082;51.038;6.992;2023-04-25T06:54:38;9.05;;;4.00;;
19842;SDS011;10082;51.038;6.992;2023-04-25T06:57:27;8.73;;;3.28;;
19842;SDS011;10082;51.038;6.992;2023-04-25T07:00:02;10.90;;;3.92;;
19842;SDS011;10082;51.038;6.992;2023-04-25T07:02:33;9.43;;;3.40;;
19842;SDS011;10082;51.038;6.992;2023-04-25T07:05:02;16.57;;;4.10;;
19842;SDS011;10082;51.038;6.992;2023-04-25T07:07:30;10.02;;;3.83;;
19842;SDS011;10082;51.038;6.992;2023-04-25T07:09:57;11.32;;;4.05;;
19842;SDS011;10082;51.038;6.992;2023-04-25T07:12:25;9.73;;;4.28;;
19842;SDS011;10082;51.038;6.992;2023-04-25T07:14:53;9.50;;;3.60;;
19842;SDS011;10082;51.038;6.992;2023-04-25T07:17:22;9.75;;;3.88;;
19842;SDS011;10082;51.038;6.992;2023-04-25T07:19:49;9.20;;;4.03;;
19842;SDS011;10082;51.038;6.992;2023-04-25T07:22:16;12.95;;;4.72;;
19842;SDS011;10082;51.038;6.992;2023-04-25T07:24:43;9.60;;;4.55;;
19842;SDS011;10082;51.038;6.992;2023-04-25T07:27:17;7.13;;;3.83;;
19842;SDS011;10082;51.038;6.992;2023-04-25T07:29:50;10.93;;;4.35;;
19842;SDS011;10082;51.038;6.992;2023-04-25T07:32:23;7.90;;;4.00;;
19842;SDS011;10082;51.038;6.992;2023-04-25T07:34:51;9.03;;;3.83;;
19842;SDS011;10082;51.038;6.992;2023-04-25T07:37:19;9.75;;;3.83;;
19842;SDS011;10082;51.038;6.992;2023-04-25T07:39:59;7.50;;;4.25;;
19842;SDS011;10082;51.038;6.992;2023-04-25T07:42:26;11.93;;;4.50;;
19842;SDS011;10082;51.038;6.992;2023-04-25T07:44:53;9.57;;;4.78;;
19842;SDS011;10082;51.038;6.992;2023-04-25T07:47:22;8.68;;;4.53;;
19842;SDS011;10082;51.038;6.992;2023-04-25T07:49:51;11.48;;;4.55;;
19842;SDS011;10082;51.038;6.992;2023-04-25T07:52:18;9.27;;;4.75;;
19842;SDS011;10082;51.038;6.992;2023-04-25T07:54:51;10.48;;;5.03;;
19842;SDS011;10082;51.038;6.992;2023-04-25T07:57:25;8.55;;;4.07;;
19842;SDS011;10082;51.038;6.992;2023-04-25T07:59:55;9.38;;;4.63;;
19842;SDS011;10082;51.038;6.992;2023-04-25T08:02:24;10.38;;;4.80;;
19842;SDS011;10082;51.038;6.992;2023-04-25T08:04:53;10.15;;;4.82;;
19842;SDS011;10082;51.038;6.992;2023-04-25T08:07:21;11.57;;;4.10;;
19842;SDS011;10082;51.038;6.992;2023-04-25T08:09:52;9.82;;;4.50;;
19842;SDS011;10082;51.038;6.992;2023-04-25T08:15:52;8.02;;;3.97;;
19842;SDS011;10082;51.038;6.992;2023-04-25T08:18:21;6.22;;;3.97;;
19842;SDS011;10082;51.038;6.992;2023-04-25T08:20:49;6.43;;;3.40;;
19842;SDS011;10082;51.038;6.992;2023-04-25T08:23:16;8.18;;;3.15;;
19842;SDS011;10082;51.038;6.992;2023-04-25T08:26:01;9.45;;;3.50;;
19842;SDS011;10082;51.038;6.992;2023-04-25T08:28:33;6.28;;;2.90;;
19842;SDS011;10082;51.038;6.992;2023-04-25T08:31:01;8.85;;;3.22;;
19842;SDS011;10082;51.038;6.992;2023-04-25T08:33:37;9.95;;;3.35;;
19842;SDS011;10082;51.038;6.992;2023-04-25T08:36:14;6.78;;;3.00;;
19842;SDS011;10082;51.038;6.992;2023-04-25T08:38:41;8.60;;;3.08;;
19842;SDS011;10082;51.038;6.992;2023-04-25T08:41:10;7.18;;;2.80;;
19842;SDS011;10082;51.038;6.992;2023-04-25T08:43:38;7.75;;;2.97;;
19842;SDS011;10082;51.038;6.992;2023-04-25T08:46:09;6.80;;;3.00;;
19842;SDS011;10082;51.038;6.992;2023-04-25T08:49:03;8.63;;;3.00;;
19842;SDS011;10082;51.038;6.992;2023-04-25T08:51:31;7.57;;;2.90;;
19842;SDS011;10082;51.038;6.992;2023-04-25T08:54:04;7.82;;;3.15;;
19842;SDS011;10082;51.038;6.992;2023-04-25T08:56:37;5.63;;;2.38;;
19842;SDS011;10082;51.038;6.992;2023-04-25T08:59:05;8.88;;;2.85;;
19842;SDS011;10082;51.038;6.992;2023-04-25T09:01:34;5.80;;;2.10;;
19842;SDS011;10082;51.038;6.992;2023-04-25T09:04:01;9.20;;;2.63;;
19842;SDS011;10082;51.038;6.992;2023-04-25T09:06:32;8.45;;;2.85;;
19842;SDS011;10082;51.038;6.992;2023-04-25T09:09:01;5.20;;;2.28;;
19842;SDS011;10082;51.038;6.992;2023-04-25T09:11:31;4.63;;;2.38;;
19842;SDS011;10082;51.038;6.992;2023-04-25T09:14:10;4.18;;;2.10;;
19842;SDS011;10082;51.038;6.992;2023-04-25T09:17:01;3.95;;;2.08;;
19842;SDS011;10082;51.038;6.992;2023-04-25T09:19:53;7.07;;;2.17;;
19842;SDS011;10082;51.038;6.992;2023-04-25T09:22:25;5.35;;;2.20;;
19842;SDS011;10082;51.038;6.992;2023-04-25T09:24:54;7.85;;;2.60;;
19842;SDS011;10082;51.038;6.992;2023-04-25T09:27:25;5.05;;;2.33;;
19842;SDS011;10082;51.038;6.992;2023-04-25T09:30:01;5.85;;;2.30;;
19842;SDS011;10082;51.038;6.992;2023-04-25T09:32:50;5.13;;;2.38;;
19842;SDS011;10082;51.038;6.992;2023-04-25T09:35:24;5.43;;;2.03;;
19842;SDS011;10082;51.038;6.992;2023-04-25T09:37:53;6.13;;;2.05;;
19842;SDS011;10082;51.038;6.992;2023-04-25T09:40:59;4.45;;;2.28;;
19842;SDS011;10082;51.038;6.992;2023-04-25T09:43:39;2.63;;;1.60;;
19842;SDS011;10082;51.038;6.992;2023-04-25T09:46:11;5.63;;;2.20;;
19842;SDS011;10082;51.038;6.992;2023-04-25T09:48:47;5.18;;;2.40;;
19842;SDS011;10082;51.038;6.992;2023-04-25T09:51:22;5.28;;;2.88;;
19842;SDS011;10082;51.038;6.992;2023-04-25T09:53:54;4.68;;;1.92;;
19842;SDS011;10082;51.038;6.992;2023-04-25T09:56:42;4.07;;;1.90;;
19842;SDS011;10082;51.038;6.992;2023-04-25T09:59:13;4.97;;;2.28;;
19842;SDS011;10082;51.038;6.992;2023-04-25T10:01:41;5.45;;;2.33;;
19842;SDS011;10082;51.038;6.992;2023-04-25T10:04:19;3.47;;;1.80;;
19842;SDS011;10082;51.038;6.992;2023-04-25T10:07:06;3.17;;;1.75;;
19842;SDS011;10082;51.038;6.992;2023-04-25T10:09:36;3.97;;;1.50;;
19842;SDS011;10082;51.038;6.992;2023-04-25T10:12:04;3.13;;;1.85;;
19842;SDS011;10082;51.038;6.992;2023-04-25T10:14:33;4.57;;;2.33;;
19842;SDS011;10082;51.038;6.992;2023-04-25T10:17:01;4.65;;;1.85;;
19842;SDS011;10082;51.038;6.992;2023-04-25T10:19:28;5.70;;;2.45;;
19842;SDS011;10082;51.038;6.992;2023-04-25T10:21:58;4.55;;;1.77;;
19842;SDS011;10082;51.038;6.992;2023-04-25T10:24:32;5.00;;;2.25;;
19842;SDS011;10082;51.038;6.992;2023-04-25T10:27:01;5.72;;;2.60;;
19842;SDS011;10082;51.038;6.992;2023-04-25T10:29:29;4.03;;;2.20;;
19842;SDS011;10082;51.038;6.992;2023-04-25T10:31:55;3.05;;;1.90;;
19842;SDS011;10082;51.038;6.992;2023-04-25T10:34:24;5.38;;;2.08;;
19842;SDS011;10082;51.038;6.992;2023-04-25T10:37:05;5.38;;;1.80;;
19842;SDS011;10082;51.038;6.992;2023-04-25T10:39:36;4.22;;;1.88;;
19842;SDS011;10082;51.038;6.992;2023-04-25T10:42:05;4.32;;;1.70;;
19842;SDS011;10082;51.038;6.992;2023-04-25T10:44:33;3.75;;;1.60;;
19842;SDS011;10082;51.038;6.992;2023-04-25T10:47:00;4.60;;;1.88;;
19842;SDS011;10082;51.038;6.992;2023-04-25T10:49:34;5.13;;;1.90;;
19842;SDS011;10082;51.038;6.992;2023-04-25T10:52:12;3.85;;;1.60;;
19842;SDS011;10082;51.038;6.992;2023-04-25T10:54:42;2.78;;;1.58;;
19842;SDS011;10082;51.038;6.992;2023-04-25T10:57:32;4.40;;;1.40;;
19842;SDS011;10082;51.038;6.992;2023-04-25T11:00:08;3.97;;;1.65;;
19842;SDS011;10082;51.038;6.992;2023-04-25T11:02:37;3.45;;;1.58;;
19842;SDS011;10082;51.038;6.992;2023-04-25T11:05:08;3.33;;;1.33;;
19842;SDS011;10082;51.038;6.992;2023-04-25T11:07:39;4.50;;;1.52;;
19842;SDS011;10082;51.038;6.992;2023-04-25T11:10:17;3.55;;;1.60;;
19842;SDS011;10082;51.038;6.992;2023-04-25T11:12:45;3.85;;;1.70;;
19842;SDS011;10082;51.038;6.992;2023-04-25T11:15:13;3.33;;;1.60;;
19842;SDS011;10082;51.038;6.992;2023-04-25T11:17:40;4.32;;;1.55;;
19842;SDS011;10082;51.038;6.992;2023-04-25T11:20:08;3.78;;;1.58;;
19842;SDS011;10082;51.038;6.992;2023-04-25T11:22:37;4.13;;;2.17;;
19842;SDS011;10082;51.038;6.992;2023-04-25T11:25:06;2.85;;;1.50;;
19842;SDS011;10082;51.038;6.992;2023-04-25T11:27:38;4.55;;;1.60;;
19842;SDS011;10082;51.038;6.992;2023-04-25T11:30:15;5.47;;;1.63;;
19842;SDS011;10082;51.038;6.992;2023-04-25T11:32:42;2.30;;;1.40;;
19842;SDS011;10082;51.038;6.992;2023-04-25T11:35:10;3.03;;;1.58;;
19842;SDS011;10082;51.038;6.992;2023-04-25T11:37:38;3.17;;;1.58;;
19842;SDS011;10082;51.038;6.992;2023-04-25T11:40:06;4.25;;;1.58;;
19842;SDS011;10082;51.038;6.992;2023-04-25T11:42:37;2.40;;;1.63;;
19842;SDS011;10082;51.038;6.992;2023-04-25T11:45:11;3.72;;;1.83;;
19842;SDS011;10082;51.038;6.992;2023-04-25T11:47:38;3.58;;;1.45;;
19842;SDS011;10082;51.038;6.992;2023-04-25T11:50:06;3.67;;;1.33;;
19842;SDS011;10082;51.038;6.992;2023-04-25T11:52:35;3.20;;;1.35;;
19842;SDS011;10082;51.038;6.992;2023-04-25T11:55:06;3.40;;;1.50;;
19842;SDS011;10082;51.038;6.992;2023-04-25T11:57:35;3.38;;;1.45;;
19842;SDS011;10082;51.038;6.992;2023-04-25T12:00:10;4.50;;;1.73;;
19842;SDS011;10082;51.038;6.992;2023-04-25T12:02:42;3.90;;;1.52;;
19842;SDS011;10082;51.038;6.992;2023-04-25T12:05:10;3.47;;;1.50;;
19842;SDS011;10082;51.038;6.992;2023-04-25T12:07:39;4.45;;;1.83;;
19842;SDS011;10082;51.038;6.992;2023-04-25T12:10:06;2.78;;;1.52;;
19842;SDS011;10082;51.038;6.992;2023-04-25T12:12:35;3.08;;;1.65;;
19842;SDS011;10082;51.038;6.992;2023-04-25T12:15:12;3.38;;;1.55;;
19842;SDS011;10082;51.038;6.992;2023-04-25T12:17:44;3.53;;;1.70;;
19842;SDS011;10082;51.038;6.992;2023-04-25T12:20:12;3.95;;;1.67;;
19842;SDS011;10082;51.038;6.992;2023-04-25T12:22:41;2.47;;;1.50;;
19842;SDS011;10082;51.038;6.992;2023-04-25T12:25:13;5.45;;;1.80;;
19842;SDS011;10082;51.038;6.992;2023-04-25T12:28:08;3.42;;;1.60;;
19842;SDS011;10082;51.038;6.992;2023-04-25T12:33:22;2.75;;;1.63;;
19842;SDS011;10082;51.038;6.992;2023-04-25T12:35:50;3.15;;;1.40;;
19842;SDS011;10082;51.038;6.992;2023-04-25T12:38:21;3.15;;;1.67;;
19842;SDS011;10082;51.038;6.992;2023-04-25T12:40:49;3.08;;;1.70;;
19842;SDS011;10082;51.038;6.992;2023-04-25T12:43:16;2.38;;;1.50;;
19842;SDS011;10082;51.038;6.992;2023-04-25T12:45:43;4.13;;;1.95;;
19842;SDS011;10082;51.038;6.992;2023-04-25T12:48:12;4.88;;;1.85;;
19842;SDS011;10082;51.038;6.992;2023-04-25T12:50:39;3.10;;;1.67;;
19842;SDS011;10082;51.038;6.992;2023-04-25T12:53:06;2.55;;;1.50;;
19842;SDS011;10082;51.038;6.992;2023-04-25T12:55:33;2.63;;;1.55;;
19842;SDS011;10082;51.038;6.992;2023-04-25T12:58:00;3.78;;;1.73;;
19842;SDS011;10082;51.038;6.992;2023-04-25T13:00:28;5.20;;;1.45;;
19842;SDS011;10082;51.038;6.992;2023-04-25T13:02:55;3.10;;;1.50;;
19842;SDS011;10082;51.038;6.992;2023-04-25T13:05:24;4.28;;;1.70;;
19842;SDS011;10082;51.038;6.992;2023-04-25T13:07:52;2.50;;;1.27;;
19842;SDS011;10082;51.038;6.992;2023-04-25T13:10:19;4.22;;;1.60;;
19842;SDS011;10082;51.038;6.992;2023-04-25T13:12:46;3.30;;;1.90;;
19842;SDS011;10082;51.038;6.992;2023-04-25T13:15:13;4.78;;;1.60;;
19842;SDS011;10082;51.038;6.992;2023-04-25T13:17:40;3.88;;;1.80;;
19842;SDS011;10082;51.038;6.992;2023-04-25T13:20:09;4.35;;;1.70;;
19842;SDS011;10082;51.038;6.992;2023-04-25T13:22:38;3.65;;;1.80;;
19842;SDS011;10082;51.038;6.992;2023-04-25T13:25:07;8.82;;;2.13;;
19842;SDS011;10082;51.038;6.992;2023-04-25T13:27:34;5.30;;;2.00;;
19842;SDS011;10082;51.038;6.992;2023-04-25T13:30:04;5.93;;;2.15;;
19842;SDS011;10082;51.038;6.992;2023-04-25T13:32:34;4.18;;;2.13;;
19842;SDS011;10082;51.038;6.992;2023-04-25T13:35:02;4.22;;;2.35;;
19842;SDS011;10082;51.038;6.992;2023-04-25T13:37:30;4.88;;;2.10;;
19842;SDS011;10082;51.038;6.992;2023-04-25T13:40:00;5.53;;;2.60;;
19842;SDS011;10082;51.038;6.992;2023-04-25T13:42:30;4.32;;;2.20;;
19842;SDS011;10082;51.038;6.992;2023-04-25T13:44:57;4.18;;;2.67;;
19842;SDS011;10082;51.038;6.992;2023-04-25T13:47:25;5.28;;;2.47;;
19842;SDS011;10082;51.038;6.992;2023-04-25T13:49:53;4.45;;;2.45;;
19842;SDS011;10082;51.038;6.992;2023-04-25T13:52:20;4.65;;;1.90;;
19842;SDS011;10082;51.038;6.992;2023-04-25T13:54:49;4.22;;;1.95;;
19842;SDS011;10082;51.038;6.992;2023-04-25T13:57:18;5.10;;;2.63;;
19842;SDS011;10082;51.038;6.992;2023-04-25T13:59:46;2.97;;;1.92;;
19842;SDS011;10082;51.038;6.992;2023-04-25T14:02:13;4.10;;;2.00;;
19842;SDS011;10082;51.038;6.992;2023-04-25T14:04:40;4.35;;;2.22;;
19842;SDS011;10082;51.038;6.992;2023-04-25T14:07:07;4.75;;;1.90;;
19842;SDS011;10082;51.038;6.992;2023-04-25T14:09:36;3.13;;;2.05;;
19842;SDS011;10082;51.038;6.992;2023-04-25T14:12:03;4.13;;;1.90;;
19842;SDS011;10082;51.038;6.992;2023-04-25T14:14:32;3.22;;;1.80;;
19842;SDS011;10082;51.038;6.992;2023-04-25T14:16:59;3.40;;;1.67;;
19842;SDS011;10082;51.038;6.992;2023-04-25T14:19:27;2.15;;;1.80;;
19842;SDS011;10082;51.038;6.992;2023-04-25T14:21:54;3.13;;;1.70;;
19842;SDS011;10082;51.038;6.992;2023-04-25T14:24:21;4.03;;;1.88;;
19842;SDS011;10082;51.038;6.992;2023-04-25T14:26:48;2.50;;;1.50;;
19842;SDS011;10082;51.038;6.992;2023-04-25T14:29:15;2.55;;;1.45;;
19842;SDS011;10082;51.038;6.992;2023-04-25T14:31:44;3.35;;;1.55;;
19842;SDS011;10082;51.038;6.992;2023-04-25T14:34:12;1.48;;;1.00;;
19842;SDS011;10082;51.038;6.992;2023-04-25T14:36:39;2.50;;;1.20;;
19842;SDS011;10082;51.038;6.992;2023-04-25T14:39:06;2.60;;;1.20;;
19842;SDS011;10082;51.038;6.992;2023-04-25T14:41:33;2.08;;;1.33;;
19842;SDS011;10082;51.038;6.992;2023-04-25T14:44:01;2.83;;;1.20;;
19842;SDS011;10082;51.038;6.992;2023-04-25T14:46:28;2.08;;;1.30;;
19842;SDS011;10082;51.038;6.992;2023-04-25T14:48:57;2.65;;;1.15;;
19842;SDS011;10082;51.038;6.992;2023-04-25T14:51:24;1.92;;;1.20;;
19842;SDS011;10082;51.038;6.992;2023-04-25T14:53:52;3.63;;;1.20;;
19842;SDS011;10082;51.038;6.992;2023-04-25T14:56:19;3.10;;;1.75;;
19842;SDS011;10082;51.038;6.992;2023-04-25T14:58:53;4.95;;;1.95;;
19842;SDS011;10082;51.038;6.992;2023-04-25T15:01:20;2.35;;;1.30;;
19842;SDS011;10082;51.038;6.992;2023-04-25T15:03:48;2.00;;;1.48;;
19842;SDS011;10082;51.038;6.992;2023-04-25T15:06:17;4.28;;;1.63;;
19842;SDS011;10082;51.038;6.992;2023-04-25T15:08:44;3.13;;;1.50;;
19842;SDS011;10082;51.038;6.992;2023-04-25T15:11:12;3.53;;;1.70;;
19842;SDS011;10082;51.038;6.992;2023-04-25T15:13:39;2.33;;;1.70;;
19842;SDS011;10082;51.038;6.992;2023-04-25T15:16:06;4.28;;;2.40;;
19842;SDS011;10082;51.038;6.992;2023-04-25T15:18:33;2.38;;;1.50;;